Time;durP1;ratioP1;P1;durP2;ratioP2;P2;SDS_P1;SDS_P2;PMS_P1;PMS_P2;Temp;Humidity;BMP_temperature;BMP_pressure;BME280_temperature;BME280_humidity;BME280_pressure;Samples;Min_cycle;Max_cycle;Signal;HPM_P1;HPM_P2
2021/12/13 00:00:11;;;;;;;33.93;21.00;;;4.40;1.00;;;;;;5092997;28;20603;-71
2021/12/13 00:02:51;;;;;;;32.57;23.53;;;4.40;1.00;;;;;;5076316;28;20255;-76
2021/12/13 00:05:22;;;;;;;31.57;20.83;;;4.50;1.00;;;;;;5086556;28;20290;-77
2021/12/13 00:07:56;;;;;;;39.00;23.73;;;4.70;1.00;;;;;;5093365;28;20730;-79
2021/12/13 00:10:30;;;;;;;31.70;21.37;;;4.80;1.00;;;;;;5093258;28;20567;-75
2021/12/13 00:13:05;;;;;;;36.43;24.73;;;4.90;1.00;;;;;;5073228;28;20205;-76
2021/12/13 00:15:35;;;;;;;29.67;21.67;;;4.90;1.00;;;;;;5073620;28;20198;-79
2021/12/13 00:18:08;;;;;;;33.83;23.87;;;4.90;1.00;;;;;;5080317;28;20270;-75
2021/12/13 00:20:41;;;;;;;45.93;25.77;;;4.90;1.00;;;;;;5092890;28;20250;-72
2021/12/13 00:23:16;;;;;;;33.90;22.83;;;4.70;1.00;;;;;;5093120;28;20213;-83
2021/12/13 00:25:48;;;;;;;43.70;28.10;;;4.80;1.00;;;;;;5092823;28;20781;-81
2021/12/13 00:28:18;;;;;;;43.20;26.13;;;5.00;1.00;;;;;;5093308;28;20577;-80
2021/12/13 00:31:01;;;;;;;39.87;23.47;;;5.00;1.00;;;;;;5092978;28;20262;-79
2021/12/13 00:33:37;;;;;;;48.90;24.87;;;4.90;1.00;;;;;;5093020;28;20293;-80
2021/12/13 00:36:10;;;;;;;43.50;23.10;;;4.70;1.00;;;;;;5093145;28;20729;-78
2021/12/13 00:38:41;;;;;;;49.00;26.43;;;4.80;1.00;;;;;;5092584;28;20201;-85
2021/12/13 00:41:13;;;;;;;50.47;24.40;;;4.90;1.00;;;;;;5078733;28;20221;-90
2021/12/13 00:43:46;;;;;;;53.17;25.07;;;4.80;6.90;;;;;;5072524;28;20616;-83
2021/12/13 00:46:17;;;;;;;50.63;21.70;;;5.00;72.40;;;;;;5079037;28;20281;-86
2021/12/13 00:48:49;;;;;;;42.37;21.23;;;4.90;99.70;;;;;;5083690;28;20213;-85
2021/12/13 00:51:22;;;;;;;37.27;19.20;;;4.90;99.90;;;;;;5073403;28;20303;-87
2021/12/13 00:53:52;;;;;;;33.97;18.83;;;4.90;99.90;;;;;;5087406;28;20213;-86
2021/12/13 00:57:05;;;;;;;37.80;20.07;;;4.80;99.90;;;;;;5093593;28;20665;-86
2021/12/13 00:59:35;;;;;;;46.33;23.77;;;4.90;99.90;;;;;;5085322;28;20665;-85
2021/12/13 01:02:08;;;;;;;26.17;17.83;;;4.90;99.90;;;;;;5073690;28;20198;-86
2021/12/13 01:04:56;;;;;;;29.67;18.20;;;4.90;99.90;;;;;;5072815;28;20202;-74
2021/12/13 01:07:59;;;;;;;26.67;17.53;;;4.90;99.90;;;;;;5072895;28;20214;-91
2021/12/13 01:11:00;;;;;;;30.20;15.77;;;4.90;99.90;;;;;;5073017;28;20292;-92
2021/12/13 01:13:33;;;;;;;21.13;13.37;;;5.00;99.90;;;;;;5088738;28;20696;-85
2021/12/13 01:16:12;;;;;;;19.93;13.80;;;4.90;93.30;;;;;;5093398;28;20565;-85
2021/12/13 01:18:58;;;;;;;29.27;16.13;;;5.00;63.60;;;;;;5092705;28;20582;-84
2021/12/13 01:21:39;;;;;;;22.07;15.17;;;5.00;19.80;;;;;;5093029;28;20197;-88
2021/12/13 01:24:30;;;;;;;24.17;14.27;;;5.00;1.00;;;;;;5093075;28;20251;-88
2021/12/13 01:26:57;;;;;;;16.80;12.40;;;5.00;1.00;;;;;;5092675;28;20232;-87
2021/12/13 01:29:28;;;;;;;21.50;14.50;;;5.00;1.00;;;;;;5093295;28;20260;-87
2021/12/13 01:31:59;;;;;;;23.53;14.57;;;5.00;1.00;;;;;;5092642;28;20785;-78
2021/12/13 01:34:28;;;;;;;23.77;15.23;;;5.00;1.00;;;;;;5092084;28;20211;-78
2021/12/13 01:37:05;;;;;;;21.57;14.43;;;5.00;1.00;;;;;;5091658;28;20562;-81
2021/12/13 01:39:33;;;;;;;20.83;13.63;;;5.00;1.00;;;;;;5092503;28;20212;-81
2021/12/13 01:42:06;;;;;;;20.27;13.50;;;5.00;1.00;;;;;;5092147;28;20259;-81
2021/12/13 01:44:37;;;;;;;24.27;15.40;;;5.00;1.00;;;;;;5092326;28;20201;-80
2021/12/13 01:47:09;;;;;;;23.87;15.00;;;5.00;1.00;;;;;;5091779;28;20237;-80
2021/12/13 01:49:39;;;;;;;22.93;12.97;;;5.00;1.00;;;;;;5091653;28;20212;-78
2021/12/13 01:52:16;;;;;;;23.07;13.93;;;5.10;1.00;;;;;;5091510;28;20657;-79
2021/12/13 01:54:43;;;;;;;64.70;18.53;;;5.00;1.00;;;;;;5091430;28;20262;-80
2021/12/13 01:57:22;;;;;;;43.13;15.50;;;4.60;1.00;;;;;;5091607;28;20202;-80
2021/12/13 01:59:54;;;;;;;36.13;14.40;;;4.40;1.00;;;;;;5091392;28;20209;-79
2021/12/13 02:02:28;;;;;;;21.77;14.90;;;4.70;1.00;;;;;;5091141;28;20304;-81
2021/12/13 02:05:01;;;;;;;21.53;15.20;;;4.70;1.00;;;;;;5091139;28;20201;-84
2021/12/13 02:07:37;;;;;;;15.47;12.77;;;4.70;6.20;;;;;;5092453;28;20237;-85
2021/12/13 02:10:07;;;;;;;18.20;11.80;;;4.70;73.60;;;;;;5092127;28;20622;-83
2021/12/13 02:12:36;;;;;;;52.23;15.73;;;4.70;55.40;;;;;;5092072;28;20262;-81
2021/12/13 02:17:50;;;;;;;17.70;11.13;;;4.50;87.50;;;;;;5091639;28;20687;-85
2021/12/13 02:20:23;;;;;;;29.00;12.63;;;4.50;99.90;;;;;;5091904;28;20217;-85
2021/12/13 02:22:53;;;;;;;48.13;14.50;;;4.40;99.90;;;;;;5091544;28;20292;-86
2021/12/13 02:25:25;;;;;;;36.07;13.63;;;4.50;99.90;;;;;;5092466;28;20205;-85
2021/12/13 02:27:58;;;;;;;22.70;11.10;;;4.40;99.90;;;;;;5090944;28;20258;-80
2021/12/13 02:30:33;;;;;;;22.03;11.43;;;4.40;99.90;;;;;;5091361;28;20209;-82
2021/12/13 02:33:01;;;;;;;36.50;13.83;;;4.30;99.90;;;;;;5091625;28;20671;-80
2021/12/13 02:35:32;;;;;;;16.50;11.13;;;4.20;1.00;;;;;;5091180;28;20205;-81
2021/12/13 02:38:03;;;;;;;34.90;12.37;;;4.40;1.00;;;;;;5090874;28;20197;-80
2021/12/13 02:40:30;;;;;;;52.93;13.30;;;4.10;1.00;;;;;;5070386;28;20683;-81
2021/12/13 02:42:58;;;;;;;37.23;13.60;;;4.00;1.00;;;;;;5070546;28;20272;-80
2021/12/13 02:45:29;;;;;;;59.17;17.00;;;4.00;99.90;;;;;;5070711;28;20623;-81
2021/12/13 02:48:01;;;;;;;48.47;14.97;;;4.00;99.90;;;;;;5070443;28;20213;-81
2021/12/13 02:50:37;;;;;;;56.87;15.13;;;4.10;1.00;;;;;;5070854;28;20613;-81
2021/12/13 02:53:06;;;;;;;17.30;11.37;;;4.00;1.00;;;;;;5070808;28;20259;-78
2021/12/13 02:55:34;;;;;;;32.20;12.77;;;4.20;1.00;;;;;;5070598;28;20206;-75
2021/12/13 02:58:06;;;;;;;42.63;15.70;;;4.20;26.10;;;;;;5071041;28;20202;-81
2021/12/13 03:00:38;;;;;;;22.73;11.83;;;4.30;56.00;;;;;;5070873;28;20275;-81
2021/12/13 03:03:09;;;;;;;20.47;11.70;;;4.30;99.90;;;;;;5070865;28;20202;-83
2021/12/13 03:05:39;;;;;;;19.37;12.07;;;4.50;99.90;;;;;;5070220;28;20198;-80
2021/12/13 03:08:11;;;;;;;19.27;11.70;;;4.70;1.00;;;;;;5070714;28;20607;-80
2021/12/13 03:10:43;;;;;;;24.90;13.23;;;4.70;21.90;;;;;;5070067;28;20198;-79
2021/12/13 03:13:10;;;;;;;19.90;10.50;;;4.80;99.20;;;;;;5070454;28;20723;-80
2021/12/13 03:15:38;;;;;;;20.17;11.33;;;4.80;1.00;;;;;;5072965;28;20243;-79
2021/12/13 03:18:12;;;;;;;23.03;11.90;;;4.80;1.00;;;;;;5074352;28;20267;-80
2021/12/13 03:21:13;;;;;;;24.13;11.00;;;4.50;99.90;;;;;;5073856;28;20330;-80
2021/12/13 03:23:57;;;;;;;28.97;11.00;;;4.40;1.00;;;;;;5073934;28;20288;-73
2021/12/13 03:26:44;;;;;;;18.00;9.90;;;4.40;1.00;;;;;;5073921;28;20639;-75
2021/12/13 03:29:16;;;;;;;16.77;9.00;;;4.40;99.90;;;;;;5074347;28;20206;-79
2021/12/13 03:31:47;;;;;;;16.67;10.23;;;4.50;99.90;;;;;;5073613;28;20256;-81
2021/12/13 03:34:18;;;;;;;34.73;10.93;;;4.60;99.90;;;;;;5074104;28;20198;-81
2021/12/13 03:36:55;;;;;;;18.73;10.27;;;4.40;1.00;;;;;;5073780;28;20681;-81
2021/12/13 03:39:26;;;;;;;16.00;9.80;;;4.50;1.00;;;;;;5073906;28;20611;-77
2021/12/13 03:41:56;;;;;;;32.90;11.97;;;4.50;1.00;;;;;;5073427;28;20374;-77
2021/12/13 03:44:29;;;;;;;23.50;11.83;;;4.40;99.90;;;;;;5073634;28;20198;-76
2021/12/13 03:47:03;;;;;;;19.90;11.20;;;4.10;99.90;;;;;;5072998;28;20264;-76
2021/12/13 03:49:31;;;;;;;22.90;10.23;;;4.30;99.90;;;;;;5074026;28;20206;-77
2021/12/13 03:51:59;;;;;;;28.40;12.10;;;4.40;99.90;;;;;;5073819;28;20198;-77
2021/12/13 03:54:32;;;;;;;24.50;11.37;;;4.10;99.90;;;;;;5073721;28;20202;-80
2021/12/13 03:57:00;;;;;;;21.83;9.97;;;3.80;99.90;;;;;;5073566;28;20263;-77
2021/12/13 03:59:29;;;;;;;17.23;10.20;;;3.90;99.90;;;;;;5073610;28;20658;-74
2021/12/13 04:01:58;;;;;;;21.63;10.77;;;3.70;1.00;;;;;;5073071;28;20297;-78
2021/12/13 04:04:30;;;;;;;20.57;10.70;;;3.60;1.00;;;;;;5073570;28;20210;-75
2021/12/13 04:07:13;;;;;;;25.27;11.00;;;3.40;1.00;;;;;;5072798;28;20233;-75
2021/12/13 04:09:44;;;;;;;25.20;10.77;;;3.20;1.00;;;;;;5073060;28;20206;-75
2021/12/13 04:12:14;;;;;;;27.53;10.23;;;3.10;26.30;;;;;;5073186;28;20674;-75
2021/12/13 04:14:47;;;;;;;25.33;10.53;;;3.10;99.90;;;;;;5073095;28;20226;-76
2021/12/13 04:17:35;;;;;;;14.83;10.37;;;3.20;1.00;;;;;;5073035;28;20411;-76
2021/12/13 04:20:06;;;;;;;14.07;9.80;;;3.50;1.00;;;;;;5073522;28;20206;-76
2021/12/13 04:22:37;;;;;;;23.40;11.87;;;3.80;1.00;;;;;;5073643;28;20256;-72
2021/12/13 04:25:10;;;;;;;18.10;11.03;;;3.60;1.00;;;;;;5072587;28;20259;-73
2021/12/13 04:27:40;;;;;;;18.90;10.53;;;3.80;1.00;;;;;;5072610;28;20234;-73
2021/12/13 04:30:15;;;;;;;17.07;11.00;;;3.60;99.90;;;;;;5072839;28;20202;-73
2021/12/13 04:32:46;;;;;;;20.17;11.63;;;3.60;81.00;;;;;;5072341;28;20624;-73
2021/12/13 04:35:14;;;;;;;16.43;9.47;;;3.40;1.00;;;;;;5072795;28;20691;-73
2021/12/13 04:37:46;;;;;;;16.80;10.30;;;3.40;1.00;;;;;;5072516;28;20628;-74
2021/12/13 04:40:18;;;;;;;19.57;10.73;;;3.60;1.00;;;;;;5072758;28;20206;-75
2021/12/13 04:42:48;;;;;;;14.63;11.13;;;3.60;48.10;;;;;;5072295;28;20206;-74
2021/12/13 04:45:18;;;;;;;19.03;11.37;;;3.40;1.00;;;;;;5072351;28;20662;-75
2021/12/13 04:47:53;;;;;;;23.60;11.93;;;3.50;1.00;;;;;;5072269;28;20241;-76
2021/12/13 04:50:26;;;;;;;20.97;11.83;;;3.50;1.00;;;;;;5072747;28;20247;-76
2021/12/13 04:52:54;;;;;;;19.73;12.97;;;3.40;19.90;;;;;;5072090;28;20693;-75
2021/12/13 04:55:26;;;;;;;27.13;13.10;;;3.30;99.90;;;;;;5072758;28;20279;-76
2021/12/13 04:57:56;;;;;;;23.43;12.30;;;3.20;99.90;;;;;;5072119;28;20206;-75
2021/12/13 05:00:25;;;;;;;18.83;11.43;;;3.20;1.00;;;;;;5072371;28;20205;-75
2021/12/13 05:02:58;;;;;;;13.97;10.47;;;3.30;1.00;;;;;;5072113;28;20252;-76
2021/12/13 05:05:26;;;;;;;19.67;11.27;;;3.30;1.00;;;;;;5072224;28;20293;-76
2021/12/13 05:07:54;;;;;;;22.03;11.87;;;3.50;1.00;;;;;;5071665;28;20651;-76
2021/12/13 05:10:25;;;;;;;12.63;10.00;;;3.50;1.00;;;;;;5072485;28;20256;-76
2021/12/13 05:13:06;;;;;;;20.10;12.00;;;3.70;99.90;;;;;;5071864;28;20206;-78
2021/12/13 05:15:35;;;;;;;17.53;10.67;;;3.50;99.90;;;;;;5072182;28;20198;-75
2021/12/13 05:18:06;;;;;;;17.70;10.00;;;3.60;99.90;;;;;;5072269;28;20263;-78
2021/12/13 05:20:37;;;;;;;17.60;10.80;;;3.70;99.90;;;;;;5071898;28;20752;-76
2021/12/13 05:23:09;;;;;;;23.77;10.73;;;3.60;54.30;;;;;;5071975;28;20210;-76
2021/12/13 05:25:41;;;;;;;14.97;11.10;;;3.40;1.00;;;;;;5071407;28;20202;-73
2021/12/13 05:28:11;;;;;;;15.87;9.37;;;3.60;1.00;;;;;;5071655;28;20234;-76
2021/12/13 05:30:46;;;;;;;21.47;10.20;;;3.50;1.00;;;;;;5071345;28;20252;-78
2021/12/13 05:33:18;;;;;;;12.93;9.40;;;3.50;1.00;;;;;;5071986;28;20206;-78
2021/12/13 05:35:49;;;;;;;12.97;7.97;;;3.50;1.00;;;;;;5071475;28;20256;-77
2021/12/13 05:38:31;;;;;;;15.13;8.67;;;3.50;1.00;;;;;;5070995;28;20210;-78
2021/12/13 05:41:01;;;;;;;12.47;8.80;;;3.60;99.90;;;;;;5071381;28;20246;-77
2021/12/13 05:43:34;;;;;;;12.63;7.53;;;3.40;1.00;;;;;;5077290;28;20205;-78
2021/12/13 05:46:03;;;;;;;15.70;8.20;;;3.40;1.00;;;;;;5080178;28;20214;-74
2021/12/13 05:48:47;;;;;;;15.10;8.87;;;3.50;1.00;;;;;;5072853;28;20303;-75
2021/12/13 05:51:25;;;;;;;13.57;7.50;;;3.30;1.00;;;;;;5091644;28;20202;-74
2021/12/13 05:53:57;;;;;;;14.13;8.10;;;3.50;1.00;;;;;;5091003;28;20197;-74
2021/12/13 05:56:28;;;;;;;10.97;8.43;;;3.60;1.00;;;;;;5091657;28;20205;-75
2021/12/13 05:58:58;;;;;;;14.80;8.30;;;3.80;1.00;;;;;;5079323;28;20217;-75
2021/12/13 06:01:29;;;;;;;14.67;10.93;;;3.80;1.00;;;;;;5082516;28;20210;-75
2021/12/13 06:04:12;;;;;;;18.30;12.00;;;3.80;1.00;;;;;;5091022;28;20251;-75
2021/12/13 06:06:46;;;;;;;14.60;9.77;;;3.90;99.90;;;;;;5090944;28;20266;-78
2021/12/13 06:09:42;;;;;;;13.67;10.37;;;3.70;99.90;;;;;;5091341;28;20258;-77
2021/12/13 06:12:14;;;;;;;16.03;10.07;;;3.70;99.90;;;;;;5091208;28;20209;-75
2021/12/13 06:14:42;;;;;;;15.20;10.03;;;3.70;99.90;;;;;;5090975;28;20278;-77
2021/12/13 06:17:13;;;;;;;47.17;13.33;;;3.80;99.90;;;;;;5091427;28;20270;-77
2021/12/13 06:19:46;;;;;;;59.77;13.97;;;3.60;99.90;;;;;;5091600;28;20205;-86
2021/12/13 06:22:17;;;;;;;47.23;14.13;;;3.30;99.90;;;;;;5092024;28;20198;-85
2021/12/13 06:24:46;;;;;;;56.33;15.30;;;3.30;1.00;;;;;;5091547;28;20669;-85
2021/12/13 06:27:19;;;;;;;32.97;11.63;;;3.20;1.00;;;;;;5091483;28;20266;-76
2021/12/13 06:30:04;;;;;;;23.17;12.10;;;3.10;1.00;;;;;;5090597;28;20205;-78
2021/12/13 06:32:39;;;;;;;38.60;13.43;;;3.40;90.50;;;;;;5090490;28;20660;-77
2021/12/13 06:35:47;;;;;;;28.33;12.00;;;3.10;99.90;;;;;;5081726;28;20273;-76
2021/12/13 06:38:48;;;;;;;21.03;11.20;;;3.30;99.90;;;;;;5044202;28;20291;-75
2021/12/13 06:41:32;;;;;;;31.17;12.97;;;3.50;99.90;;;;;;5017096;28;20223;-75
2021/12/13 06:44:05;;;;;;;15.17;9.03;;;3.50;99.90;;;;;;5071089;28;20197;-77
2021/12/13 06:46:42;;;;;;;24.47;11.37;;;3.50;27.90;;;;;;5091080;28;20271;-77
2021/12/13 06:49:18;;;;;;;16.97;10.63;;;3.30;1.00;;;;;;5094258;28;20205;-76
2021/12/13 06:51:50;;;;;;;16.27;11.00;;;3.30;1.00;;;;;;5096784;28;20224;-78
2021/12/13 06:54:20;;;;;;;24.67;11.77;;;3.30;17.60;;;;;;5097233;28;20201;-77
2021/12/13 06:56:54;;;;;;;19.90;10.30;;;3.10;1.00;;;;;;5091367;28;20238;-78
2021/12/13 06:59:24;;;;;;;25.37;14.33;;;3.00;5.50;;;;;;5097361;28;20208;-78
2021/12/13 07:02:13;;;;;;;25.60;12.20;;;2.80;12.90;;;;;;5096692;28;20560;-77
2021/12/13 07:05:02;;;;;;;17.63;10.00;;;2.90;91.70;;;;;;5093750;28;20306;-78
2021/12/13 07:07:33;;;;;;;17.90;11.50;;;3.00;99.90;;;;;;5097166;28;20213;-78
2021/12/13 07:10:08;;;;;;;15.47;10.47;;;3.00;99.90;;;;;;5097182;28;20680;-79
2021/12/13 07:12:45;;;;;;;14.27;11.53;;;3.00;99.90;;;;;;5091798;28;20209;-73
2021/12/13 07:15:29;;;;;;;23.77;12.27;;;3.00;99.90;;;;;;5087686;28;20201;-77
2021/12/13 07:18:07;;;;;;;18.60;10.60;;;2.80;99.90;;;;;;5084734;28;20542;-78
2021/12/13 07:20:40;;;;;;;28.23;12.37;;;2.70;99.90;;;;;;5088757;28;20245;-78
2021/12/13 07:23:07;;;;;;;18.30;11.33;;;2.80;99.90;;;;;;5089086;28;20267;-75
2021/12/13 07:25:41;;;;;;;18.47;9.47;;;2.80;99.90;;;;;;5076832;28;20210;-73
2021/12/13 07:28:09;;;;;;;17.47;10.63;;;2.90;99.90;;;;;;5080591;28;20221;-74
2021/12/13 07:30:39;;;;;;;19.60;9.90;;;3.00;99.90;;;;;;5082844;28;20259;-76
2021/12/13 07:33:11;;;;;;;17.47;11.53;;;3.00;99.90;;;;;;5079196;28;20210;-76
2021/12/13 07:35:42;;;;;;;18.20;11.07;;;2.90;99.90;;;;;;5080804;28;20197;-75
2021/12/13 07:38:11;;;;;;;18.87;10.23;;;2.80;99.90;;;;;;5089397;28;20205;-76
2021/12/13 07:40:42;;;;;;;34.13;13.60;;;2.90;99.90;;;;;;5091304;28;20221;-76
2021/12/13 07:43:17;;;;;;;16.47;10.77;;;3.00;99.90;;;;;;5089085;28;20252;-78
2021/12/13 07:45:53;;;;;;;21.40;11.20;;;2.90;1.00;;;;;;5087621;28;20621;-76
2021/12/13 07:48:24;;;;;;;22.73;11.07;;;2.90;1.00;;;;;;5094041;28;20580;-78
2021/12/13 07:51:04;;;;;;;19.90;11.20;;;2.90;1.00;;;;;;5095573;28;20676;-77
2021/12/13 07:53:42;;;;;;;23.23;12.00;;;2.90;1.00;;;;;;5088078;28;20201;-73
2021/12/13 07:56:12;;;;;;;22.23;10.73;;;2.90;1.00;;;;;;5096384;28;20208;-79
2021/12/13 07:58:42;;;;;;;20.90;11.00;;;3.10;1.00;;;;;;5093005;28;20210;-81
2021/12/13 08:01:18;;;;;;;24.37;10.97;;;3.00;1.00;;;;;;5077596;28;20274;-81
2021/12/13 08:03:50;;;;;;;13.10;7.97;;;3.30;1.00;;;;;;5071006;28;20255;-81
2021/12/13 08:06:17;;;;;;;16.37;11.13;;;3.50;1.00;;;;;;5073183;28;20206;-77
2021/12/13 08:08:52;;;;;;;20.17;10.23;;;3.70;99.90;;;;;;5091454;28;20715;-77
2021/12/13 08:11:19;;;;;;;17.40;11.20;;;3.70;15.70;;;;;;5074369;28;20258;-76
2021/12/13 08:13:57;;;;;;;13.03;8.87;;;3.50;1.00;;;;;;5073912;28;20727;-76
2021/12/13 08:16:33;;;;;;;17.53;9.60;;;3.60;1.00;;;;;;5073574;28;20217;-76
2021/12/13 08:19:10;;;;;;;14.40;9.77;;;3.70;1.00;;;;;;5075302;28;20259;-73
2021/12/13 08:21:43;;;;;;;14.00;8.73;;;4.10;1.00;;;;;;5087607;28;20206;-75
2021/12/13 08:24:19;;;;;;;14.43;9.50;;;4.30;1.00;;;;;;5073189;28;20210;-75
2021/12/13 08:26:46;;;;;;;16.60;10.27;;;4.40;1.00;;;;;;5091471;28;20640;-73
2021/12/13 08:29:19;;;;;;;18.23;11.10;;;4.40;1.00;;;;;;5090284;28;20237;-75
2021/12/13 08:31:51;;;;;;;12.10;9.23;;;4.20;1.00;;;;;;5092920;28;20329;-75
2021/12/13 08:34:25;;;;;;;12.50;9.90;;;4.30;1.00;;;;;;5091658;28;20205;-74
2021/12/13 08:36:53;;;;;;;15.20;9.40;;;4.60;1.00;;;;;;5084286;28;20629;-73
2021/12/13 08:39:25;;;;;;;14.87;8.13;;;4.60;1.00;;;;;;5088482;28;20741;-75
2021/12/13 08:41:56;;;;;;;12.50;8.83;;;4.60;1.00;;;;;;5084902;28;20660;-75
2021/12/13 08:44:26;;;;;;;15.63;8.60;;;4.90;1.00;;;;;;5092769;28;20202;-76
2021/12/13 08:46:58;;;;;;;10.90;7.43;;;4.50;1.00;;;;;;5076243;28;20214;-75
2021/12/13 08:49:34;;;;;;;10.93;7.23;;;4.30;1.00;;;;;;5079209;28;20735;-76
2021/12/13 08:52:07;;;;;;;10.53;8.20;;;4.50;1.00;;;;;;5083571;28;20271;-75
2021/12/13 08:54:46;;;;;;;11.57;8.57;;;4.50;1.00;;;;;;5082641;28;20275;-76
2021/12/13 08:57:31;;;;;;;13.93;9.43;;;4.40;1.00;;;;;;5092833;28;20201;-76
2021/12/13 09:00:00;;;;;;;11.43;8.17;;;4.60;1.00;;;;;;5086221;28;20256;-74
2021/12/13 09:02:36;;;;;;;11.33;8.80;;;5.20;1.00;;;;;;5081683;28;20205;-72
2021/12/13 09:05:08;;;;;;;11.53;8.03;;;5.60;1.00;;;;;;5092299;28;20741;-71
2021/12/13 09:07:36;;;;;;;11.07;8.93;;;5.80;1.00;;;;;;5092067;28;20262;-71
2021/12/13 09:10:06;;;;;;;8.77;7.23;;;5.90;1.00;;;;;;5093000;28;20209;-74
2021/12/13 09:12:42;;;;;;;12.87;9.77;;;6.00;1.00;;;;;;5091460;28;20718;-72
2021/12/13 09:15:22;;;;;;;12.43;8.87;;;6.50;1.00;;;;;;5092042;28;20665;-74
2021/12/13 09:17:52;;;;;;;12.07;8.97;;;6.40;1.00;;;;;;5092090;28;20214;-75
2021/12/13 09:20:23;;;;;;;13.97;8.87;;;6.10;1.00;;;;;;5083753;28;20202;-76
2021/12/13 09:22:53;;;;;;;17.67;10.43;;;5.90;1.00;;;;;;5086239;28;20202;-75
2021/12/13 09:25:29;;;;;;;17.50;11.53;;;5.70;1.00;;;;;;5078140;28;20276;-78
2021/12/13 09:27:59;;;;;;;14.53;9.97;;;5.20;1.00;;;;;;5074523;28;20736;-77
2021/12/13 09:30:36;;;;;;;14.27;9.37;;;5.40;1.00;;;;;;5076725;28;20229;-77
2021/12/13 09:33:13;;;;;;;12.80;9.17;;;5.90;1.00;;;;;;5086094;28;20685;-76
2021/12/13 09:35:55;;;;;;;13.17;9.80;;;6.50;1.00;;;;;;5076837;28;20213;-74
2021/12/13 09:38:47;;;;;;;17.80;9.13;;;6.70;1.00;;;;;;5071717;28;20206;-74
2021/12/13 09:41:25;;;;;;;10.33;7.57;;;7.20;1.00;;;;;;5071154;28;20218;-74
2021/12/13 09:43:57;;;;;;;8.77;6.77;;;6.90;1.00;;;;;;5070969;28;20202;-77
2021/12/13 09:46:36;;;;;;;9.67;7.90;;;6.90;1.00;;;;;;5071577;28;20312;-77
2021/12/13 09:49:08;;;;;;;12.23;9.83;;;6.60;1.00;;;;;;5071265;28;20584;-73
2021/12/13 09:51:41;;;;;;;14.93;10.23;;;7.40;1.00;;;;;;5071101;28;20248;-74
2021/12/13 09:54:11;;;;;;;17.20;11.23;;;8.40;1.00;;;;;;5071506;28;20202;-77
2021/12/13 09:56:46;;;;;;;15.90;10.40;;;8.30;1.00;;;;;;5070989;28;20205;-77
2021/12/13 09:59:19;;;;;;;17.60;11.57;;;8.30;1.00;;;;;;5071385;28;20206;-78
2021/12/13 10:01:46;;;;;;;24.07;14.57;;;9.10;1.00;;;;;;5070752;28;20650;-76
2021/12/13 10:04:18;;;;;;;17.97;13.47;;;8.90;1.00;;;;;;5071297;28;20264;-76
2021/12/13 10:06:49;;;;;;;20.53;13.63;;;10.30;1.00;;;;;;5070794;28;20206;-71
2021/12/13 10:09:21;;;;;;;19.67;13.47;;;11.80;1.00;;;;;;5071145;28;20283;-74
2021/12/13 10:11:53;;;;;;;15.87;12.30;;;14.00;1.00;;;;;;5070625;28;20302;-72
2021/12/13 10:14:24;;;;;;;18.50;12.27;;;15.80;1.00;;;;;;5071064;28;20210;-73
2021/12/13 10:16:55;;;;;;;13.83;11.73;;;16.60;1.00;;;;;;5070548;28;20198;-71
2021/12/13 10:19:29;;;;;;;13.73;10.13;;;17.10;1.00;;;;;;5070548;28;20232;-71
2021/12/13 10:21:57;;;;;;;12.17;10.73;;;17.80;1.00;;;;;;5070853;28;20202;-71
2021/12/13 10:24:26;;;;;;;15.37;11.20;;;18.20;1.00;;;;;;5077912;28;20255;-75
2021/12/13 10:26:56;;;;;;;15.87;12.13;;;17.90;1.00;;;;;;5090879;28;20742;-78
2021/12/13 10:29:27;;;;;;;14.47;10.83;;;18.50;1.00;;;;;;5091692;28;20259;-78
2021/12/13 10:32:00;;;;;;;18.13;10.55;;;18.70;1.00;;;;;;5084768;28;20770;-79
2021/12/13 10:34:33;;;;;;;17.57;11.43;;;17.10;1.00;;;;;;5081950;28;20217;-79
2021/12/13 10:37:06;;;;;;;14.02;9.82;;;16.40;1.00;;;;;;5071172;28;20248;-78
2021/12/13 10:39:37;;;;;;;16.42;11.57;;;15.30;1.00;;;;;;5071169;28;20256;-75
2021/12/13 10:42:09;;;;;;;13.00;11.23;;;15.60;1.00;;;;;;5073149;28;20214;-75
2021/12/13 10:44:43;;;;;;;14.53;12.67;;;12.40;1.00;;;;;;5088825;28;20301;-77
2021/12/13 10:47:18;;;;;;;16.60;12.90;;;10.60;1.00;;;;;;5091625;28;20205;-80
2021/12/13 10:49:49;;;;;;;14.83;11.30;;;9.40;1.00;;;;;;5091610;28;20236;-78
2021/12/13 10:55:45;;;;;;;15.77;10.87;;;8.50;1.00;;;;;;5075657;28;20288;-78
2021/12/13 10:58:30;;;;;;;15.87;10.40;;;8.50;1.00;;;;;;5077316;28;20207;-77
2021/12/13 11:01:17;;;;;;;15.00;8.67;;;8.70;1.00;;;;;;5079423;28;20248;-77
2021/12/13 11:04:11;;;;;;;12.33;8.00;;;8.80;1.00;;;;;;5085839;28;20919;-78
2021/12/13 11:07:08;;;;;;;12.03;7.40;;;8.90;1.00;;;;;;5070917;28;20198;-78
2021/12/13 11:09:48;;;;;;;13.40;7.60;;;8.80;1.00;;;;;;5071583;28;20230;-79
2021/12/13 11:12:27;;;;;;;8.87;5.27;;;9.10;1.00;;;;;;5070725;28;20206;-81
2021/12/13 11:15:21;;;;;;;7.87;6.13;;;9.30;1.00;;;;;;5070954;28;20237;-79
2021/12/13 11:17:55;;;;;;;11.60;7.27;;;9.60;1.00;;;;;;5078963;28;20213;-81
2021/12/13 11:20:41;;;;;;;9.37;6.77;;;9.80;1.00;;;;;;5089909;28;20209;-79
2021/12/13 11:23:12;;;;;;;9.07;6.13;;;9.80;1.00;;;;;;5090786;28;20672;-78
2021/12/13 11:25:42;;;;;;;7.77;6.23;;;10.00;1.00;;;;;;5090746;28;20206;-76
2021/12/13 11:28:11;;;;;;;7.57;5.97;;;10.20;1.00;;;;;;5081085;28;20745;-77
2021/12/13 11:30:40;;;;;;;7.27;5.17;;;10.40;1.00;;;;;;5074416;28;20213;-77
2021/12/13 11:33:43;;;;;;;7.37;6.10;;;10.50;1.00;;;;;;5079524;28;20279;-77
2021/12/13 11:36:59;;;;;;;8.10;5.97;;;10.70;1.00;;;;;;5092553;28;20235;-77
2021/12/13 11:40:02;;;;;;;6.13;4.93;;;10.80;1.00;;;;;;5016907;28;20649;-77
2021/12/13 11:43:14;;;;;;;9.47;5.90;;;10.90;1.00;;;;;;5061842;28;20601;-76
2021/12/13 11:46:07;;;;;;;8.23;4.33;;;11.10;1.00;;;;;;5093553;28;20557;-76
2021/12/13 11:48:57;;;;;;;6.13;4.10;;;11.20;1.00;;;;;;5089419;28;20303;-77
2021/12/13 11:52:04;;;;;;;6.50;4.43;;;11.20;1.00;;;;;;5078559;28;20205;-78
2021/12/13 11:54:55;;;;;;;4.60;3.60;;;11.40;1.00;;;;;;5079145;28;20634;-77
2021/12/13 11:58:01;;;;;;;4.03;3.33;;;11.60;1.00;;;;;;5093294;28;20239;-77
2021/12/13 12:01:15;;;;;;;6.47;3.17;;;11.70;1.00;;;;;;5063250;28;20596;-77
2021/12/13 12:04:14;;;;;;;8.67;3.93;;;11.80;1.00;;;;;;5064017;28;20217;-78
2021/12/13 12:07:23;;;;;;;6.17;3.73;;;12.00;1.00;;;;;;5073476;28;20202;-78
2021/12/13 12:10:12;;;;;;;5.43;3.27;;;12.20;1.00;;;;;;5073652;28;20364;-77
2021/12/13 12:13:07;;;;;;;8.13;3.13;;;12.30;1.00;;;;;;5090399;28;20210;-75
2021/12/13 12:15:36;;;;;;;3.23;2.73;;;12.40;1.00;;;;;;5081436;28;20255;-76
2021/12/13 12:18:07;;;;;;;5.77;3.40;;;12.40;1.00;;;;;;5088248;28;20323;-76
2021/12/13 12:20:38;;;;;;;2.70;2.10;;;12.60;1.00;;;;;;5090913;28;20213;-75
2021/12/13 12:23:07;;;;;;;3.93;2.40;;;12.60;1.00;;;;;;5084152;28;20228;-77
2021/12/13 12:25:37;;;;;;;3.30;2.03;;;12.60;1.00;;;;;;5073444;28;20268;-74
2021/12/13 12:28:07;;;;;;;6.30;2.03;;;12.60;1.00;;;;;;5077066;28;20214;-74
2021/12/13 12:30:40;;;;;;;3.37;2.03;;;12.70;1.00;;;;;;5072764;28;20237;-76
2021/12/13 12:33:24;;;;;;;5.53;1.83;;;12.70;1.00;;;;;;5071657;28;20213;-76
2021/12/13 12:35:53;;;;;;;6.03;2.07;;;12.80;1.00;;;;;;5072183;28;20209;-78
2021/12/13 12:42:04;;;;;;;3.50;2.37;;;12.90;1.00;;;;;;5073968;28;20213;-83
2021/12/13 12:44:38;;;;;;;5.40;1.80;;;12.90;1.00;;;;;;5061473;28;20225;-74
2021/12/13 12:47:13;;;;;;;2.73;1.40;;;13.00;1.00;;;;;;5072830;28;20206;-73
2021/12/13 12:49:40;;;;;;;3.03;1.40;;;13.10;1.00;;;;;;5075444;28;20284;-75
2021/12/13 12:52:09;;;;;;;2.47;2.03;;;13.20;1.00;;;;;;5077753;28;20214;-75
2021/12/13 12:54:38;;;;;;;3.33;1.83;;;13.20;1.00;;;;;;5093040;28;20205;-74
2021/12/13 12:57:07;;;;;;;4.43;2.20;;;13.20;1.00;;;;;;5092575;28;20205;-74
2021/12/13 12:59:38;;;;;;;3.60;1.97;;;13.30;1.00;;;;;;5092472;28;20254;-74
2021/12/13 13:02:08;;;;;;;3.07;1.90;;;13.40;1.00;;;;;;5092355;28;20656;-77
2021/12/13 13:04:39;;;;;;;4.33;1.83;;;13.30;1.00;;;;;;5091892;28;20292;-69
2021/12/13 13:07:09;;;;;;;3.53;2.20;;;13.40;1.00;;;;;;5082325;28;20214;-77
2021/12/13 13:09:43;;;;;;;9.57;3.00;;;13.50;1.00;;;;;;5091488;28;20225;-74
2021/12/13 13:12:15;;;;;;;2.30;1.53;;;13.50;1.00;;;;;;5079994;28;20673;-75
2021/12/13 13:14:48;;;;;;;1.52;1.35;;;13.50;1.00;;;;;;5070905;28;20259;-75
2021/12/13 13:17:16;;;;;;;3.38;2.20;;;13.50;1.00;;;;;;5070135;28;20739;-77
2021/12/13 13:19:46;;;;;;;2.45;1.60;;;13.60;1.00;;;;;;5070295;28;20466;-75
2021/12/13 13:22:15;;;;;;;4.87;2.30;;;13.60;1.00;;;;;;5072187;28;20256;-75
2021/12/13 13:24:46;;;;;;;2.90;2.60;;;13.70;1.00;;;;;;5071586;28;20202;-74
2021/12/13 13:27:15;;;;;;;2.57;1.40;;;13.60;1.00;;;;;;5071796;28;20206;-76
2021/12/13 13:29:42;;;;;;;7.47;2.33;;;13.60;1.00;;;;;;5071432;28;20230;-75
2021/12/13 13:32:12;;;;;;;2.65;1.75;;;13.80;1.00;;;;;;5071754;28;20206;-76
2021/12/13 13:34:43;;;;;;;2.85;2.42;;;13.80;1.00;;;;;;5071290;28;20297;-76
2021/12/13 13:37:14;;;;;;;2.55;1.60;;;13.70;1.00;;;;;;5071850;28;20201;-76